sensor_id;sensor_type;location;lat;lon;timestamp;P1;durP1;ratioP1;P2;durP2;ratioP2
58496;SDS011;44284;51.310;16.904;2023-03-23T00:02:23;63.42;;;40.88;;
58496;SDS011;44284;51.310;16.904;2023-03-23T00:04:49;61.20;;;37.10;;
58496;SDS011;44284;51.310;16.904;2023-03-23T00:07:16;63.75;;;41.45;;
58496;SDS011;44284;51.310;16.904;2023-03-23T00:09:47;59.35;;;38.50;;
58496;SDS011;44284;51.310;16.904;2023-03-23T00:12:17;56.35;;;34.90;;
58496;SDS011;44284;51.310;16.904;2023-03-23T00:14:43;56.75;;;35.47;;
58496;SDS011;44284;51.310;16.904;2023-03-23T00:17:10;53.47;;;33.67;;
58496;SDS011;44284;51.310;16.904;2023-03-23T00:19:39;50.55;;;33.72;;
58496;SDS011;44284;51.310;16.904;2023-03-23T00:22:11;46.85;;;31.77;;
58496;SDS011;44284;51.310;16.904;2023-03-23T00:24:37;51.83;;;32.65;;
58496;SDS011;44284;51.310;16.904;2023-03-23T00:27:03;45.03;;;30.92;;
58496;SDS011;44284;51.310;16.904;2023-03-23T00:29:30;47.03;;;30.20;;
58496;SDS011;44284;51.310;16.904;2023-03-23T00:31:57;50.65;;;30.70;;
58496;SDS011;44284;51.310;16.904;2023-03-23T00:34:23;45.15;;;29.77;;
58496;SDS011;44284;51.310;16.904;2023-03-23T00:36:53;48.10;;;31.13;;
58496;SDS011;44284;51.310;16.904;2023-03-23T00:39:22;47.67;;;29.05;;
58496;SDS011;44284;51.310;16.904;2023-03-23T00:41:51;47.15;;;29.50;;
58496;SDS011;44284;51.310;16.904;2023-03-23T00:44:18;47.42;;;29.75;;
58496;SDS011;44284;51.310;16.904;2023-03-23T00:46:48;45.03;;;30.00;;
58496;SDS011;44284;51.310;16.904;2023-03-23T00:49:18;46.10;;;28.13;;
58496;SDS011;44284;51.310;16.904;2023-03-23T00:51:45;39.78;;;27.27;;
58496;SDS011;44284;51.310;16.904;2023-03-23T00:54:11;39.88;;;26.08;;
58496;SDS011;44284;51.310;16.904;2023-03-23T00:56:37;35.03;;;25.60;;
58496;SDS011;44284;51.310;16.904;2023-03-23T00:59:06;34.67;;;24.55;;
58496;SDS011;44284;51.310;16.904;2023-03-23T01:01:32;35.72;;;24.67;;
58496;SDS011;44284;51.310;16.904;2023-03-23T01:03:59;36.70;;;24.90;;
58496;SDS011;44284;51.310;16.904;2023-03-23T01:06:29;38.53;;;25.73;;
58496;SDS011;44284;51.310;16.904;2023-03-23T01:08:56;39.53;;;26.52;;
58496;SDS011;44284;51.310;16.904;2023-03-23T01:11:22;36.05;;;25.08;;
58496;SDS011;44284;51.310;16.904;2023-03-23T01:13:49;37.00;;;24.75;;
58496;SDS011;44284;51.310;16.904;2023-03-23T01:16:15;38.63;;;25.70;;
58496;SDS011;44284;51.310;16.904;2023-03-23T01:18:41;32.90;;;24.05;;
58496;SDS011;44284;51.310;16.904;2023-03-23T01:21:08;32.92;;;23.40;;
58496;SDS011;44284;51.310;16.904;2023-03-23T01:23:35;36.25;;;22.92;;
58496;SDS011;44284;51.310;16.904;2023-03-23T01:26:05;31.77;;;22.85;;
58496;SDS011;44284;51.310;16.904;2023-03-23T01:28:32;32.00;;;23.15;;
58496;SDS011;44284;51.310;16.904;2023-03-23T01:30:59;32.22;;;23.08;;
58496;SDS011;44284;51.310;16.904;2023-03-23T01:33:25;33.92;;;22.50;;
58496;SDS011;44284;51.310;16.904;2023-03-23T01:35:51;34.50;;;23.27;;
58496;SDS011;44284;51.310;16.904;2023-03-23T01:38:17;31.55;;;23.90;;
58496;SDS011;44284;51.310;16.904;2023-03-23T01:40:43;34.83;;;24.70;;
58496;SDS011;44284;51.310;16.904;2023-03-23T01:43:14;40.13;;;26.17;;
58496;SDS011;44284;51.310;16.904;2023-03-23T01:45:40;34.70;;;24.85;;
58496;SDS011;44284;51.310;16.904;2023-03-23T01:48:17;35.83;;;24.52;;
58496;SDS011;44284;51.310;16.904;2023-03-23T01:53:11;38.47;;;25.40;;
58496;SDS011;44284;51.310;16.904;2023-03-23T01:55:38;38.03;;;23.98;;
58496;SDS011;44284;51.310;16.904;2023-03-23T01:58:05;34.40;;;22.90;;
58496;SDS011;44284;51.310;16.904;2023-03-23T02:00:32;33.60;;;22.95;;
58496;SDS011;44284;51.310;16.904;2023-03-23T02:02:59;30.80;;;21.60;;
58496;SDS011;44284;51.310;16.904;2023-03-23T02:07:52;32.88;;;21.13;;
58496;SDS011;44284;51.310;16.904;2023-03-23T02:10:18;29.60;;;20.75;;
58496;SDS011;44284;51.310;16.904;2023-03-23T02:12:44;31.60;;;21.00;;
58496;SDS011;44284;51.310;16.904;2023-03-23T02:15:11;34.03;;;20.58;;
58496;SDS011;44284;51.310;16.904;2023-03-23T02:20:17;28.58;;;19.63;;
58496;SDS011;44284;51.310;16.904;2023-03-23T02:23:30;31.10;;;20.13;;
58496;SDS011;44284;51.310;16.904;2023-03-23T02:38:49;31.17;;;21.33;;
58496;SDS011;44284;51.310;16.904;2023-03-23T02:41:18;30.17;;;19.92;;
58496;SDS011;44284;51.310;16.904;2023-03-23T02:43:45;27.35;;;20.20;;
58496;SDS011;44284;51.310;16.904;2023-03-23T02:46:12;30.50;;;20.60;;
58496;SDS011;44284;51.310;16.904;2023-03-23T02:48:39;29.73;;;19.50;;
58496;SDS011;44284;51.310;16.904;2023-03-23T02:51:06;25.58;;;18.08;;
58496;SDS011;44284;51.310;16.904;2023-03-23T02:53:34;27.05;;;19.50;;
58496;SDS011;44284;51.310;16.904;2023-03-23T02:56:02;26.17;;;18.92;;
58496;SDS011;44284;51.310;16.904;2023-03-23T02:58:30;26.98;;;18.05;;
58496;SDS011;44284;51.310;16.904;2023-03-23T03:00:56;27.60;;;19.02;;
58496;SDS011;44284;51.310;16.904;2023-03-23T03:03:25;26.67;;;19.23;;
58496;SDS011;44284;51.310;16.904;2023-03-23T03:08:24;28.02;;;18.55;;
58496;SDS011;44284;51.310;16.904;2023-03-23T03:16:08;26.40;;;17.02;;
58496;SDS011;44284;51.310;16.904;2023-03-23T03:18:56;26.30;;;17.38;;
58496;SDS011;44284;51.310;16.904;2023-03-23T03:21:23;27.23;;;17.40;;
58496;SDS011;44284;51.310;16.904;2023-03-23T03:23:52;22.60;;;16.95;;
58496;SDS011;44284;51.310;16.904;2023-03-23T03:26:19;25.70;;;16.58;;
58496;SDS011;44284;51.310;16.904;2023-03-23T03:28:47;22.58;;;16.45;;
58496;SDS011;44284;51.310;16.904;2023-03-23T03:31:13;26.45;;;16.88;;
58496;SDS011;44284;51.310;16.904;2023-03-23T03:33:41;24.30;;;17.50;;
58496;SDS011;44284;51.310;16.904;2023-03-23T03:36:07;24.80;;;16.58;;
58496;SDS011;44284;51.310;16.904;2023-03-23T03:38:40;25.35;;;16.35;;
58496;SDS011;44284;51.310;16.904;2023-03-23T03:41:07;24.65;;;16.38;;
58496;SDS011;44284;51.310;16.904;2023-03-23T03:43:33;24.33;;;16.00;;
58496;SDS011;44284;51.310;16.904;2023-03-23T03:46:00;26.88;;;16.75;;
58496;SDS011;44284;51.310;16.904;2023-03-23T03:48:26;21.70;;;15.75;;
58496;SDS011;44284;51.310;16.904;2023-03-23T03:50:52;24.90;;;16.30;;
58496;SDS011;44284;51.310;16.904;2023-03-23T03:53:21;23.40;;;16.65;;
58496;SDS011;44284;51.310;16.904;2023-03-23T03:55:47;27.02;;;16.60;;
58496;SDS011;44284;51.310;16.904;2023-03-23T03:58:14;23.05;;;15.98;;
58496;SDS011;44284;51.310;16.904;2023-03-23T04:00:40;24.13;;;16.80;;
58496;SDS011;44284;51.310;16.904;2023-03-23T04:03:07;26.20;;;16.85;;
58496;SDS011;44284;51.310;16.904;2023-03-23T04:05:34;23.58;;;16.10;;
58496;SDS011;44284;51.310;16.904;2023-03-23T04:08:01;25.70;;;16.98;;
58496;SDS011;44284;51.310;16.904;2023-03-23T04:10:28;24.27;;;17.88;;
58496;SDS011;44284;51.310;16.904;2023-03-23T04:12:55;30.55;;;21.00;;
58496;SDS011;44284;51.310;16.904;2023-03-23T04:15:21;28.63;;;21.25;;
58496;SDS011;44284;51.310;16.904;2023-03-23T04:17:47;33.53;;;21.73;;
58496;SDS011;44284;51.310;16.904;2023-03-23T04:20:13;30.40;;;21.13;;
58496;SDS011;44284;51.310;16.904;2023-03-23T04:22:45;30.05;;;20.17;;
58496;SDS011;44284;51.310;16.904;2023-03-23T04:25:14;28.60;;;20.27;;
58496;SDS011;44284;51.310;16.904;2023-03-23T04:27:41;27.17;;;18.80;;
58496;SDS011;44284;51.310;16.904;2023-03-23T04:30:11;26.23;;;15.88;;
58496;SDS011;44284;51.310;16.904;2023-03-23T04:32:38;24.95;;;17.15;;
58496;SDS011;44284;51.310;16.904;2023-03-23T04:35:07;25.83;;;16.42;;
58496;SDS011;44284;51.310;16.904;2023-03-23T04:37:33;24.42;;;16.00;;
58496;SDS011;44284;51.310;16.904;2023-03-23T04:40:00;21.23;;;15.20;;
58496;SDS011;44284;51.310;16.904;2023-03-23T04:42:31;24.25;;;14.52;;
58496;SDS011;44284;51.310;16.904;2023-03-23T04:44:57;20.67;;;14.13;;
58496;SDS011;44284;51.310;16.904;2023-03-23T04:47:24;21.67;;;13.82;;
58496;SDS011;44284;51.310;16.904;2023-03-23T04:49:54;23.25;;;13.70;;
58496;SDS011;44284;51.310;16.904;2023-03-23T04:52:21;19.60;;;13.02;;
58496;SDS011;44284;51.310;16.904;2023-03-23T04:54:47;20.75;;;13.82;;
58496;SDS011;44284;51.310;16.904;2023-03-23T04:57:13;21.23;;;14.82;;
58496;SDS011;44284;51.310;16.904;2023-03-23T04:59:40;26.42;;;14.18;;
58496;SDS011;44284;51.310;16.904;2023-03-23T05:02:06;18.58;;;12.38;;
58496;SDS011;44284;51.310;16.904;2023-03-23T05:04:32;19.02;;;13.05;;
58496;SDS011;44284;51.310;16.904;2023-03-23T05:06:58;21.65;;;13.65;;
58496;SDS011;44284;51.310;16.904;2023-03-23T05:09:25;20.38;;;12.48;;
58496;SDS011;44284;51.310;16.904;2023-03-23T05:11:51;20.58;;;12.27;;
58496;SDS011;44284;51.310;16.904;2023-03-23T05:14:17;18.63;;;11.90;;
58496;SDS011;44284;51.310;16.904;2023-03-23T05:16:43;17.23;;;11.85;;
58496;SDS011;44284;51.310;16.904;2023-03-23T05:19:13;16.20;;;11.18;;
58496;SDS011;44284;51.310;16.904;2023-03-23T05:21:39;18.55;;;11.38;;
58496;SDS011;44284;51.310;16.904;2023-03-23T05:24:05;18.95;;;11.55;;
58496;SDS011;44284;51.310;16.904;2023-03-23T05:26:31;19.13;;;11.63;;
58496;SDS011;44284;51.310;16.904;2023-03-23T05:28:58;16.45;;;11.98;;
58496;SDS011;44284;51.310;16.904;2023-03-23T05:31:24;15.98;;;11.98;;
58496;SDS011;44284;51.310;16.904;2023-03-23T05:33:50;15.35;;;11.38;;
58496;SDS011;44284;51.310;16.904;2023-03-23T05:36:17;17.40;;;12.02;;
58496;SDS011;44284;51.310;16.904;2023-03-23T05:38:43;18.58;;;12.02;;
58496;SDS011;44284;51.310;16.904;2023-03-23T05:41:12;20.08;;;12.50;;
58496;SDS011;44284;51.310;16.904;2023-03-23T05:43:38;18.45;;;12.32;;
58496;SDS011;44284;51.310;16.904;2023-03-23T05:46:04;15.93;;;11.60;;
58496;SDS011;44284;51.310;16.904;2023-03-23T05:48:31;18.95;;;11.98;;
58496;SDS011;44284;51.310;16.904;2023-03-23T05:50:58;16.42;;;11.98;;
58496;SDS011;44284;51.310;16.904;2023-03-23T05:53:24;18.48;;;11.07;;
58496;SDS011;44284;51.310;16.904;2023-03-23T05:55:50;16.33;;;11.07;;
58496;SDS011;44284;51.310;16.904;2023-03-23T05:58:17;21.25;;;12.68;;
58496;SDS011;44284;51.310;16.904;2023-03-23T06:00:43;21.73;;;13.82;;
58496;SDS011;44284;51.310;16.904;2023-03-23T06:03:11;27.05;;;15.68;;
58496;SDS011;44284;51.310;16.904;2023-03-23T06:05:44;28.48;;;17.38;;
58496;SDS011;44284;51.310;16.904;2023-03-23T06:08:10;26.73;;;16.50;;
58496;SDS011;44284;51.310;16.904;2023-03-23T06:10:37;26.35;;;15.23;;
58496;SDS011;44284;51.310;16.904;2023-03-23T06:13:03;27.73;;;15.05;;
58496;SDS011;44284;51.310;16.904;2023-03-23T06:15:30;20.77;;;14.05;;
58496;SDS011;44284;51.310;16.904;2023-03-23T06:18:00;30.00;;;12.95;;
58496;SDS011;44284;51.310;16.904;2023-03-23T06:20:27;17.48;;;11.77;;
58496;SDS011;44284;51.310;16.904;2023-03-23T06:22:54;26.40;;;11.25;;
58496;SDS011;44284;51.310;16.904;2023-03-23T06:25:21;22.88;;;10.38;;
58496;SDS011;44284;51.310;16.904;2023-03-23T06:27:47;15.63;;;10.85;;
58496;SDS011;44284;51.310;16.904;2023-03-23T06:30:14;14.98;;;9.93;;
58496;SDS011;44284;51.310;16.904;2023-03-23T06:32:40;14.50;;;9.32;;
58496;SDS011;44284;51.310;16.904;2023-03-23T06:35:08;15.32;;;9.68;;
58496;SDS011;44284;51.310;16.904;2023-03-23T06:37:35;13.88;;;9.50;;
58496;SDS011;44284;51.310;16.904;2023-03-23T06:40:01;15.18;;;8.90;;
58496;SDS011;44284;51.310;16.904;2023-03-23T06:42:29;15.32;;;9.48;;
58496;SDS011;44284;51.310;16.904;2023-03-23T06:44:55;17.58;;;9.13;;
58496;SDS011;44284;51.310;16.904;2023-03-23T06:47:23;16.65;;;10.60;;
58496;SDS011;44284;51.310;16.904;2023-03-23T06:49:49;17.98;;;10.25;;
58496;SDS011;44284;51.310;16.904;2023-03-23T06:52:15;18.52;;;10.55;;
58496;SDS011;44284;51.310;16.904;2023-03-23T06:54:42;17.90;;;10.63;;
58496;SDS011;44284;51.310;16.904;2023-03-23T06:57:08;16.83;;;10.18;;
58496;SDS011;44284;51.310;16.904;2023-03-23T06:59:35;15.32;;;9.95;;
58496;SDS011;44284;51.310;16.904;2023-03-23T07:02:01;16.40;;;9.10;;
58496;SDS011;44284;51.310;16.904;2023-03-23T07:04:27;13.10;;;8.15;;
58496;SDS011;44284;51.310;16.904;2023-03-23T07:06:53;14.20;;;9.52;;
58496;SDS011;44284;51.310;16.904;2023-03-23T07:09:21;13.75;;;8.88;;
58496;SDS011;44284;51.310;16.904;2023-03-23T07:11:47;13.70;;;8.93;;
58496;SDS011;44284;51.310;16.904;2023-03-23T07:14:13;14.13;;;9.25;;
58496;SDS011;44284;51.310;16.904;2023-03-23T07:16:40;15.35;;;8.18;;
58496;SDS011;44284;51.310;16.904;2023-03-23T07:19:06;14.40;;;8.57;;
58496;SDS011;44284;51.310;16.904;2023-03-23T07:21:32;14.07;;;8.75;;
58496;SDS011;44284;51.310;16.904;2023-03-23T07:23:58;13.90;;;9.13;;
58496;SDS011;44284;51.310;16.904;2023-03-23T07:26:24;15.32;;;9.50;;
58496;SDS011;44284;51.310;16.904;2023-03-23T07:28:50;15.70;;;9.30;;
58496;SDS011;44284;51.310;16.904;2023-03-23T07:31:16;17.42;;;10.45;;
58496;SDS011;44284;51.310;16.904;2023-03-23T07:33:42;15.65;;;11.23;;
58496;SDS011;44284;51.310;16.904;2023-03-23T07:36:09;14.27;;;9.77;;
58496;SDS011;44284;51.310;16.904;2023-03-23T07:38:35;14.20;;;8.98;;
58496;SDS011;44284;51.310;16.904;2023-03-23T07:41:01;14.48;;;9.95;;
58496;SDS011;44284;51.310;16.904;2023-03-23T07:43:28;14.43;;;9.60;;
58496;SDS011;44284;51.310;16.904;2023-03-23T07:45:54;15.23;;;10.02;;
58496;SDS011;44284;51.310;16.904;2023-03-23T07:48:20;14.30;;;9.32;;
58496;SDS011;44284;51.310;16.904;2023-03-23T07:50:46;12.70;;;9.23;;
58496;SDS011;44284;51.310;16.904;2023-03-23T07:53:12;15.90;;;9.82;;
58496;SDS011;44284;51.310;16.904;2023-03-23T07:55:38;15.27;;;9.18;;
58496;SDS011;44284;51.310;16.904;2023-03-23T07:58:04;12.65;;;8.35;;
58496;SDS011;44284;51.310;16.904;2023-03-23T08:00:31;12.13;;;9.27;;
58496;SDS011;44284;51.310;16.904;2023-03-23T08:02:57;15.10;;;7.90;;
58496;SDS011;44284;51.310;16.904;2023-03-23T08:05:24;12.20;;;8.10;;
58496;SDS011;44284;51.310;16.904;2023-03-23T08:07:51;18.27;;;8.43;;
58496;SDS011;44284;51.310;16.904;2023-03-23T08:10:19;57.17;;;8.95;;
58496;SDS011;44284;51.310;16.904;2023-03-23T08:12:50;11.90;;;7.25;;
58496;SDS011;44284;51.310;16.904;2023-03-23T08:15:16;17.15;;;8.25;;
58496;SDS011;44284;51.310;16.904;2023-03-23T08:17:43;16.42;;;8.07;;
58496;SDS011;44284;51.310;16.904;2023-03-23T08:20:10;15.98;;;9.52;;
58496;SDS011;44284;51.310;16.904;2023-03-23T08:22:38;11.45;;;7.45;;
58496;SDS011;44284;51.310;16.904;2023-03-23T08:25:06;10.15;;;7.20;;
58496;SDS011;44284;51.310;16.904;2023-03-23T08:27:32;11.93;;;7.68;;
58496;SDS011;44284;51.310;16.904;2023-03-23T08:29:58;10.73;;;7.65;;
58496;SDS011;44284;51.310;16.904;2023-03-23T08:32:25;10.82;;;7.15;;
58496;SDS011;44284;51.310;16.904;2023-03-23T08:34:51;10.35;;;7.00;;
58496;SDS011;44284;51.310;16.904;2023-03-23T08:37:17;15.77;;;7.22;;
58496;SDS011;44284;51.310;16.904;2023-03-23T08:39:44;10.82;;;6.57;;
58496;SDS011;44284;51.310;16.904;2023-03-23T08:42:10;13.20;;;6.93;;
58496;SDS011;44284;51.310;16.904;2023-03-23T08:44:37;12.10;;;6.82;;
58496;SDS011;44284;51.310;16.904;2023-03-23T08:47:03;9.10;;;6.53;;
58496;SDS011;44284;51.310;16.904;2023-03-23T08:49:30;10.30;;;6.65;;
58496;SDS011;44284;51.310;16.904;2023-03-23T08:51:59;9.48;;;6.55;;
58496;SDS011;44284;51.310;16.904;2023-03-23T08:54:25;11.25;;;6.47;;
58496;SDS011;44284;51.310;16.904;2023-03-23T08:56:51;9.60;;;6.10;;
58496;SDS011;44284;51.310;16.904;2023-03-23T08:59:17;12.50;;;6.30;;
58496;SDS011;44284;51.310;16.904;2023-03-23T09:01:44;10.23;;;6.65;;
58496;SDS011;44284;51.310;16.904;2023-03-23T09:04:10;10.88;;;5.95;;
58496;SDS011;44284;51.310;16.904;2023-03-23T09:06:36;8.30;;;5.53;;
58496;SDS011;44284;51.310;16.904;2023-03-23T09:09:03;8.85;;;5.95;;
58496;SDS011;44284;51.310;16.904;2023-03-23T09:11:32;11.75;;;5.95;;
58496;SDS011;44284;51.310;16.904;2023-03-23T09:13:58;9.70;;;5.28;;
58496;SDS011;44284;51.310;16.904;2023-03-23T09:16:24;9.13;;;5.38;;
58496;SDS011;44284;51.310;16.904;2023-03-23T09:18:51;8.60;;;5.20;;
58496;SDS011;44284;51.310;16.904;2023-03-23T09:21:17;9.27;;;5.32;;
58496;SDS011;44284;51.310;16.904;2023-03-23T09:23:44;6.75;;;4.40;;
58496;SDS011;44284;51.310;16.904;2023-03-23T09:26:10;8.00;;;4.40;;
58496;SDS011;44284;51.310;16.904;2023-03-23T09:28:36;8.07;;;4.50;;
58496;SDS011;44284;51.310;16.904;2023-03-23T09:31:02;7.78;;;4.15;;
58496;SDS011;44284;51.310;16.904;2023-03-23T09:33:29;8.40;;;4.22;;
58496;SDS011;44284;51.310;16.904;2023-03-23T09:35:58;5.80;;;3.38;;
58496;SDS011;44284;51.310;16.904;2023-03-23T09:38:25;10.55;;;3.53;;
58496;SDS011;44284;51.310;16.904;2023-03-23T09:40:55;6.50;;;2.75;;
58496;SDS011;44284;51.310;16.904;2023-03-23T09:51:14;4.82;;;2.20;;
58496;SDS011;44284;51.310;16.904;2023-03-23T09:53:43;4.05;;;2.42;;
58496;SDS011;44284;51.310;16.904;2023-03-23T09:56:12;4.85;;;2.30;;
58496;SDS011;44284;51.310;16.904;2023-03-23T09:58:58;7.10;;;2.47;;
58496;SDS011;44284;51.310;16.904;2023-03-23T10:01:26;8.50;;;2.97;;
58496;SDS011;44284;51.310;16.904;2023-03-23T10:06:36;5.10;;;2.35;;
58496;SDS011;44284;51.310;16.904;2023-03-23T10:09:03;4.70;;;2.72;;
58496;SDS011;44284;51.310;16.904;2023-03-23T10:17:11;4.93;;;2.70;;
58496;SDS011;44284;51.310;16.904;2023-03-23T10:22:05;5.68;;;2.40;;
58496;SDS011;44284;51.310;16.904;2023-03-23T10:24:35;7.83;;;3.83;;
58496;SDS011;44284;51.310;16.904;2023-03-23T10:27:09;6.75;;;3.60;;
58496;SDS011;44284;51.310;16.904;2023-03-23T10:29:38;7.55;;;4.05;;
58496;SDS011;44284;51.310;16.904;2023-03-23T10:32:09;9.07;;;4.85;;
58496;SDS011;44284;51.310;16.904;2023-03-23T10:37:11;5.07;;;2.63;;
58496;SDS011;44284;51.310;16.904;2023-03-23T10:39:41;26.30;;;4.60;;
58496;SDS011;44284;51.310;16.904;2023-03-23T10:42:08;8.05;;;4.22;;
58496;SDS011;44284;51.310;16.904;2023-03-23T10:44:34;6.15;;;3.58;;
58496;SDS011;44284;51.310;16.904;2023-03-23T10:47:02;4.60;;;2.33;;
58496;SDS011;44284;51.310;16.904;2023-03-23T10:49:34;5.53;;;2.33;;
58496;SDS011;44284;51.310;16.904;2023-03-23T10:54:36;9.75;;;4.88;;
58496;SDS011;44284;51.310;16.904;2023-03-23T10:57:11;6.90;;;2.33;;
58496;SDS011;44284;51.310;16.904;2023-03-23T11:02:10;6.40;;;3.25;;
58496;SDS011;44284;51.310;16.904;2023-03-23T11:04:39;7.35;;;3.15;;
58496;SDS011;44284;51.310;16.904;2023-03-23T11:07:13;5.38;;;2.88;;
58496;SDS011;44284;51.310;16.904;2023-03-23T11:09:51;5.55;;;2.83;;
58496;SDS011;44284;51.310;16.904;2023-03-23T11:12:18;5.32;;;2.47;;
58496;SDS011;44284;51.310;16.904;2023-03-23T11:14:45;84.85;;;5.35;;
58496;SDS011;44284;51.310;16.904;2023-03-23T11:17:22;9.18;;;3.20;;
58496;SDS011;44284;51.310;16.904;2023-03-23T11:19:49;8.88;;;3.42;;
58496;SDS011;44284;51.310;16.904;2023-03-23T11:22:36;4.28;;;2.28;;
58496;SDS011;44284;51.310;16.904;2023-03-23T11:25:03;4.53;;;2.05;;
58496;SDS011;44284;51.310;16.904;2023-03-23T11:27:29;3.85;;;2.08;;
58496;SDS011;44284;51.310;16.904;2023-03-23T11:30:00;4.47;;;2.65;;
58496;SDS011;44284;51.310;16.904;2023-03-23T11:32:30;4.68;;;2.63;;
58496;SDS011;44284;51.310;16.904;2023-03-23T11:34:58;4.70;;;2.35;;
58496;SDS011;44284;51.310;16.904;2023-03-23T11:37:41;5.55;;;2.78;;
58496;SDS011;44284;51.310;16.904;2023-03-23T11:42:38;4.90;;;2.85;;
58496;SDS011;44284;51.310;16.904;2023-03-23T11:50:53;5.22;;;2.80;;
58496;SDS011;44284;51.310;16.904;2023-03-23T11:56:05;5.72;;;2.97;;
58496;SDS011;44284;51.310;16.904;2023-03-23T11:58:32;4.65;;;2.40;;
58496;SDS011;44284;51.310;16.904;2023-03-23T12:01:02;4.47;;;2.35;;
58496;SDS011;44284;51.310;16.904;2023-03-23T12:06:30;6.15;;;2.65;;
58496;SDS011;44284;51.310;16.904;2023-03-23T12:27:55;6.50;;;2.75;;
58496;SDS011;44284;51.310;16.904;2023-03-23T12:43:27;5.57;;;2.90;;
58496;SDS011;44284;51.310;16.904;2023-03-23T12:48:33;6.30;;;3.22;;
58496;SDS011;44284;51.310;16.904;2023-03-23T12:53:48;5.22;;;3.30;;
58496;SDS011;44284;51.310;16.904;2023-03-23T12:56:35;13.43;;;3.30;;
58496;SDS011;44284;51.310;16.904;2023-03-23T13:01:30;6.00;;;3.20;;
58496;SDS011;44284;51.310;16.904;2023-03-23T13:03:58;4.38;;;2.47;;
58496;SDS011;44284;51.310;16.904;2023-03-23T13:06:38;5.10;;;2.88;;
58496;SDS011;44284;51.310;16.904;2023-03-23T13:14:20;6.43;;;3.03;;
58496;SDS011;44284;51.310;16.904;2023-03-23T13:17:01;7.70;;;3.00;;
58496;SDS011;44284;51.310;16.904;2023-03-23T13:22:08;4.35;;;2.70;;
58496;SDS011;44284;51.310;16.904;2023-03-23T13:24:36;6.10;;;3.50;;
58496;SDS011;44284;51.310;16.904;2023-03-23T13:27:04;6.93;;;3.10;;
58496;SDS011;44284;51.310;16.904;2023-03-23T13:29:31;6.50;;;3.20;;
58496;SDS011;44284;51.310;16.904;2023-03-23T13:32:12;4.60;;;2.78;;
58496;SDS011;44284;51.310;16.904;2023-03-23T13:34:41;4.72;;;2.65;;
58496;SDS011;44284;51.310;16.904;2023-03-23T13:37:11;4.15;;;2.78;;
58496;SDS011;44284;51.310;16.904;2023-03-23T13:39:58;6.72;;;3.95;;
58496;SDS011;44284;51.310;16.904;2023-03-23T13:42:26;4.47;;;2.72;;
58496;SDS011;44284;51.310;16.904;2023-03-23T13:44:57;7.70;;;3.17;;
58496;SDS011;44284;51.310;16.904;2023-03-23T13:47:41;4.70;;;2.72;;
58496;SDS011;44284;51.310;16.904;2023-03-23T13:50:24;8.60;;;3.08;;
58496;SDS011;44284;51.310;16.904;2023-03-23T13:52:53;5.53;;;3.00;;
58496;SDS011;44284;51.310;16.904;2023-03-23T13:57:56;6.10;;;3.00;;
58496;SDS011;44284;51.310;16.904;2023-03-23T14:00:27;5.50;;;3.42;;
58496;SDS011;44284;51.310;16.904;2023-03-23T14:03:10;6.15;;;3.28;;
58496;SDS011;44284;51.310;16.904;2023-03-23T14:05:37;7.22;;;3.10;;
58496;SDS011;44284;51.310;16.904;2023-03-23T14:10:43;5.25;;;3.22;;
58496;SDS011;44284;51.310;16.904;2023-03-23T14:13:18;7.45;;;3.33;;
58496;SDS011;44284;51.310;16.904;2023-03-23T14:15:58;7.78;;;3.30;;
58496;SDS011;44284;51.310;16.904;2023-03-23T14:18:26;5.65;;;2.90;;
58496;SDS011;44284;51.310;16.904;2023-03-23T14:20:52;6.60;;;3.38;;
58496;SDS011;44284;51.310;16.904;2023-03-23T14:23:19;7.68;;;3.50;;
58496;SDS011;44284;51.310;16.904;2023-03-23T14:25:53;6.50;;;3.35;;
58496;SDS011;44284;51.310;16.904;2023-03-23T14:30:47;4.45;;;2.90;;
58496;SDS011;44284;51.310;16.904;2023-03-23T14:33:14;5.75;;;3.00;;
58496;SDS011;44284;51.310;16.904;2023-03-23T14:35:41;5.20;;;3.35;;
58496;SDS011;44284;51.310;16.904;2023-03-23T14:38:11;7.28;;;3.10;;
58496;SDS011;44284;51.310;16.904;2023-03-23T14:40:40;6.65;;;3.25;;
58496;SDS011;44284;51.310;16.904;2023-03-23T14:43:06;4.93;;;2.97;;
58496;SDS011;44284;51.310;16.904;2023-03-23T14:45:32;6.82;;;3.50;;
58496;SDS011;44284;51.310;16.904;2023-03-23T14:48:00;7.60;;;3.38;;
58496;SDS011;44284;51.310;16.904;2023-03-23T14:50:30;5.18;;;2.90;;
58496;SDS011;44284;51.310;16.904;2023-03-23T14:53:02;6.40;;;3.08;;
58496;SDS011;44284;51.310;16.904;2023-03-23T14:55:30;5.90;;;3.40;;
58496;SDS011;44284;51.310;16.904;2023-03-23T14:58:05;7.10;;;3.67;;
58496;SDS011;44284;51.310;16.904;2023-03-23T15:00:33;5.82;;;3.28;;
58496;SDS011;44284;51.310;16.904;2023-03-23T15:03:00;7.63;;;3.90;;
58496;SDS011;44284;51.310;16.904;2023-03-23T15:05:29;6.18;;;3.30;;
58496;SDS011;44284;51.310;16.904;2023-03-23T15:08:02;7.95;;;3.40;;
58496;SDS011;44284;51.310;16.904;2023-03-23T15:10:29;4.90;;;2.72;;
58496;SDS011;44284;51.310;16.904;2023-03-23T15:12:55;5.82;;;3.10;;
58496;SDS011;44284;51.310;16.904;2023-03-23T15:15:30;4.93;;;3.08;;
58496;SDS011;44284;51.310;16.904;2023-03-23T15:17:57;7.23;;;3.60;;
58496;SDS011;44284;51.310;16.904;2023-03-23T15:20:56;9.95;;;4.78;;
58496;SDS011;44284;51.310;16.904;2023-03-23T15:23:16;6.60;;;3.72;;
58496;SDS011;44284;51.310;16.904;2023-03-23T15:25:52;6.18;;;3.53;;
58496;SDS011;44284;51.310;16.904;2023-03-23T15:28:20;6.28;;;3.15;;
58496;SDS011;44284;51.310;16.904;2023-03-23T15:30:50;7.22;;;4.13;;
58496;SDS011;44284;51.310;16.904;2023-03-23T15:33:17;9.57;;;5.50;;
58496;SDS011;44284;51.310;16.904;2023-03-23T15:35:48;5.63;;;3.30;;
58496;SDS011;44284;51.310;16.904;2023-03-23T15:38:17;11.15;;;6.40;;
58496;SDS011;44284;51.310;16.904;2023-03-23T15:40:44;6.28;;;3.92;;
58496;SDS011;44284;51.310;16.904;2023-03-23T15:46:46;7.85;;;4.18;;
58496;SDS011;44284;51.310;16.904;2023-03-23T15:51:13;5.80;;;3.58;;
58496;SDS011;44284;51.310;16.904;2023-03-23T15:53:39;7.10;;;3.15;;
58496;SDS011;44284;51.310;16.904;2023-03-23T15:56:07;10.07;;;5.65;;
58496;SDS011;44284;51.310;16.904;2023-03-23T15:58:34;10.13;;;6.07;;
58496;SDS011;44284;51.310;16.904;2023-03-23T16:01:13;8.80;;;4.65;;
58496;SDS011;44284;51.310;16.904;2023-03-23T16:03:47;6.93;;;3.67;;
58496;SDS011;44284;51.310;16.904;2023-03-23T16:06:15;7.03;;;4.63;;
58496;SDS011;44284;51.310;16.904;2023-03-23T16:08:41;9.63;;;5.43;;
58496;SDS011;44284;51.310;16.904;2023-03-23T16:11:14;5.93;;;3.63;;
58496;SDS011;44284;51.310;16.904;2023-03-23T16:13:41;9.20;;;5.28;;
58496;SDS011;44284;51.310;16.904;2023-03-23T16:16:12;8.18;;;3.67;;
58496;SDS011;44284;51.310;16.904;2023-03-23T16:18:39;12.70;;;5.63;;
58496;SDS011;44284;51.310;16.904;2023-03-23T16:21:05;5.80;;;3.78;;
58496;SDS011;44284;51.310;16.904;2023-03-23T16:23:31;6.85;;;3.58;;
58496;SDS011;44284;51.310;16.904;2023-03-23T16:25:57;7.90;;;3.63;;
58496;SDS011;44284;51.310;16.904;2023-03-23T16:28:23;7.30;;;4.20;;
58496;SDS011;44284;51.310;16.904;2023-03-23T16:30:49;6.07;;;3.70;;
58496;SDS011;44284;51.310;16.904;2023-03-23T16:33:15;5.70;;;3.25;;
58496;SDS011;44284;51.310;16.904;2023-03-23T16:35:42;7.95;;;3.45;;
58496;SDS011;44284;51.310;16.904;2023-03-23T16:38:12;7.70;;;3.70;;